Time;durP1;ratioP1;P1;durP2;ratioP2;P2;SDS_P1;SDS_P2;PMS_P1;PMS_P2;Temp;Humidity;BMP_temperature;BMP_pressure;BME280_temperature;BME280_humidity;BME280_pressure;Samples;Min_cycle;Max_cycle;Signal;HPM_P1;HPM_P2
2023/07/16 00:00:59;;;;;;;3.80;1.60;;;20.10;1.00;;;;;;5035083;28;20503;-79
2023/07/16 00:03:25;;;;;;;2.33;1.67;;;20.20;1.00;;;;;;5035248;28;20461;-80
2023/07/16 00:05:52;;;;;;;3.37;1.70;;;20.10;1.00;;;;;;5033973;28;20480;-76
2023/07/16 00:08:20;;;;;;;2.10;1.57;;;20.20;1.00;;;;;;5034888;28;20543;-78
2023/07/16 00:10:47;;;;;;;3.40;2.27;;;20.20;1.00;;;;;;5034331;28;20483;-77
2023/07/16 00:13:14;;;;;;;4.87;1.57;;;20.20;1.00;;;;;;5034787;28;20456;-78
2023/07/16 00:15:41;;;;;;;5.53;1.30;;;20.20;1.00;;;;;;5033524;28;20453;-78
2023/07/16 00:18:07;;;;;;;3.90;1.60;;;20.10;1.00;;;;;;5034559;28;20498;-79
2023/07/16 00:20:34;;;;;;;2.93;1.70;;;20.10;1.00;;;;;;5033987;28;20464;-79
2023/07/16 00:23:01;;;;;;;2.63;1.73;;;20.20;1.00;;;;;;5033443;28;20902;-78
2023/07/16 00:25:29;;;;;;;4.53;1.37;;;20.20;1.00;;;;;;5033071;28;20463;-75
2023/07/16 00:27:56;;;;;;;2.53;1.47;;;20.20;1.00;;;;;;5034219;28;20449;-78
2023/07/16 00:30:23;;;;;;;5.87;2.33;;;20.10;1.00;;;;;;5033653;28;20864;-79
2023/07/16 00:32:49;;;;;;;4.03;1.83;;;20.00;3.30;;;;;;5033943;28;20448;-78
2023/07/16 00:35:16;;;;;;;2.83;1.40;;;20.00;1.00;;;;;;5032960;28;20452;-76
2023/07/16 00:37:44;;;;;;;3.43;1.80;;;19.90;1.00;;;;;;5041521;28;20975;-79
2023/07/16 00:40:12;;;;;;;5.13;2.00;;;19.90;1.00;;;;;;5037174;28;20483;-80
2023/07/16 00:42:40;;;;;;;8.50;2.40;;;19.90;1.00;;;;;;5032991;28;20449;-78
2023/07/16 00:45:13;;;;;;;2.77;1.77;;;19.80;1.00;;;;;;5032078;28;21067;-78
2023/07/16 00:47:41;;;;;;;2.40;1.40;;;19.80;1.00;;;;;;5030860;28;20511;-77
2023/07/16 00:50:09;;;;;;;2.23;1.50;;;19.80;1.00;;;;;;5030854;28;20491;-76
2023/07/16 00:52:36;;;;;;;4.83;1.60;;;19.90;3.90;;;;;;5031371;28;20961;-78
2023/07/16 00:55:03;;;;;;;5.87;2.00;;;19.90;12.60;;;;;;5032651;28;20457;-79
2023/07/16 00:57:31;;;;;;;5.40;2.03;;;19.80;17.20;;;;;;5033047;28;20456;-79
2023/07/16 00:59:59;;;;;;;5.50;1.70;;;19.80;24.30;;;;;;5034175;28;20996;-80
2023/07/16 01:02:26;;;;;;;3.53;1.93;;;19.90;99.90;;;;;;5033739;28;20488;-79
2023/07/16 01:04:54;;;;;;;6.60;2.53;;;19.80;99.90;;;;;;5033010;28;20459;-78
2023/07/16 01:07:24;;;;;;;4.50;2.10;;;19.80;95.90;;;;;;5032476;28;20519;-79
2023/07/16 01:09:54;;;;;;;4.70;2.37;;;19.80;99.90;;;;;;5033316;28;20840;-78
2023/07/16 01:12:22;;;;;;;4.37;2.00;;;19.70;99.90;;;;;;5033733;28;20457;-79
2023/07/16 01:14:51;;;;;;;3.43;2.30;;;19.70;99.90;;;;;;5033599;28;20806;-79
2023/07/16 01:17:19;;;;;;;3.17;1.70;;;19.60;99.90;;;;;;5032585;28;21136;-79
2023/07/16 01:19:46;;;;;;;2.47;1.83;;;19.60;99.90;;;;;;5033055;28;20473;-79
2023/07/16 01:22:50;;;;;;;2.87;1.80;;;19.60;99.90;;;;;;5033223;28;20475;-79
2023/07/16 01:25:55;;;;;;;2.20;1.43;;;19.80;99.90;;;;;;4990474;28;20821;-79
2023/07/16 01:28:35;;;;;;;6.43;1.90;;;19.50;99.90;;;;;;4934297;29;20453;-79
2023/07/16 01:31:04;;;;;;;5.60;1.80;;;19.40;99.90;;;;;;5005460;28;20867;-79
2023/07/16 01:33:32;;;;;;;2.50;1.53;;;19.40;99.90;;;;;;5013401;28;20816;-78
2023/07/16 01:36:00;;;;;;;2.87;2.07;;;19.40;99.90;;;;;;5012480;28;20457;-79
2023/07/16 01:38:28;;;;;;;3.10;1.80;;;19.30;99.90;;;;;;5030552;28;20448;-78
2023/07/16 01:40:54;;;;;;;4.77;1.73;;;19.30;99.90;;;;;;5033064;28;20472;-79
2023/07/16 01:43:21;;;;;;;3.03;1.87;;;19.30;99.90;;;;;;5033526;28;20453;-79
2023/07/16 01:45:48;;;;;;;5.33;1.60;;;19.30;99.90;;;;;;5031214;28;20818;-79
2023/07/16 01:48:29;;;;;;;6.30;1.53;;;19.30;99.90;;;;;;5032987;28;20481;-79
2023/07/16 01:50:56;;;;;;;5.63;2.00;;;19.20;99.90;;;;;;5032953;28;20472;-79
2023/07/16 01:53:23;;;;;;;2.90;1.50;;;19.10;99.90;;;;;;5033763;28;20820;-79
2023/07/16 01:55:50;;;;;;;5.70;1.83;;;19.20;99.90;;;;;;5031924;28;20453;-79
2023/07/16 01:58:17;;;;;;;5.10;2.20;;;19.20;99.90;;;;;;5033342;28;20894;-80
2023/07/16 02:00:44;;;;;;;2.63;1.43;;;19.20;99.90;;;;;;5033138;28;20468;-79
2023/07/16 02:03:11;;;;;;;2.63;1.63;;;19.20;99.90;;;;;;5033364;28;20453;-79
2023/07/16 02:05:39;;;;;;;3.60;1.57;;;19.20;99.90;;;;;;5032003;28;20460;-79
2023/07/16 02:08:06;;;;;;;2.27;1.40;;;19.10;99.90;;;;;;5033327;28;20488;-79
2023/07/16 02:10:32;;;;;;;2.67;1.80;;;19.20;99.90;;;;;;5033402;28;20488;-79
2023/07/16 02:12:59;;;;;;;2.63;1.70;;;19.10;99.90;;;;;;5032993;28;20452;-80
2023/07/16 02:15:26;;;;;;;3.60;1.90;;;19.10;99.90;;;;;;5030971;28;20868;-79
2023/07/16 02:17:53;;;;;;;2.03;1.47;;;19.10;99.90;;;;;;5032581;28;20460;-79
2023/07/16 02:20:20;;;;;;;4.57;2.00;;;19.10;99.90;;;;;;5031793;28;20565;-79
2023/07/16 02:22:48;;;;;;;3.20;1.87;;;19.10;99.90;;;;;;5032516;28;20965;-79
2023/07/16 02:25:15;;;;;;;7.90;1.50;;;19.10;99.90;;;;;;5032520;28;20449;-76
2023/07/16 02:27:41;;;;;;;4.60;1.67;;;19.20;99.90;;;;;;5032855;28;20488;-78
2023/07/16 02:30:09;;;;;;;4.97;1.80;;;19.10;99.90;;;;;;5032427;28;20481;-78
2023/07/16 02:32:36;;;;;;;4.07;2.10;;;19.10;99.90;;;;;;5041471;28;20466;-79
2023/07/16 02:35:03;;;;;;;2.83;1.83;;;19.20;99.90;;;;;;5050212;28;20471;-79
2023/07/16 02:37:29;;;;;;;2.70;1.60;;;19.10;99.90;;;;;;5037182;28;20448;-78
2023/07/16 02:39:58;;;;;;;2.53;1.53;;;19.20;99.90;;;;;;5032622;28;20464;-78
2023/07/16 02:42:25;;;;;;;2.60;1.50;;;19.20;99.90;;;;;;5032199;28;20897;-79
2023/07/16 02:44:51;;;;;;;3.40;2.00;;;19.30;99.90;;;;;;5031671;28;20460;-78
2023/07/16 02:47:18;;;;;;;4.83;1.50;;;19.30;99.90;;;;;;5035892;28;20495;-80
2023/07/16 02:49:45;;;;;;;5.50;1.77;;;19.40;99.90;;;;;;5043315;28;20538;-79
2023/07/16 02:52:12;;;;;;;3.30;1.47;;;19.40;99.90;;;;;;5047037;28;20845;-78
2023/07/16 02:54:39;;;;;;;3.20;1.60;;;19.40;99.90;;;;;;5051458;28;20451;-79
2023/07/16 02:57:07;;;;;;;4.10;1.37;;;19.20;99.90;;;;;;5010348;28;20456;-78
2023/07/16 02:59:34;;;;;;;3.33;1.60;;;19.30;99.90;;;;;;5012446;28;20481;-79
2023/07/16 03:02:01;;;;;;;2.00;1.40;;;19.30;69.50;;;;;;5012846;28;20544;-79
2023/07/16 03:04:27;;;;;;;6.37;1.97;;;19.30;82.80;;;;;;5011739;28;20954;-77
2023/07/16 03:06:54;;;;;;;4.20;1.50;;;19.30;50.00;;;;;;5015696;28;20518;-78
2023/07/16 03:09:21;;;;;;;2.90;1.70;;;19.40;57.10;;;;;;5033218;28;20491;-80
2023/07/16 03:11:48;;;;;;;4.87;2.10;;;19.40;57.40;;;;;;5035461;28;20455;-79
2023/07/16 03:14:16;;;;;;;10.03;2.00;;;19.40;44.00;;;;;;5035791;28;20469;-78
2023/07/16 03:16:43;;;;;;;4.57;1.77;;;19.40;41.10;;;;;;5034444;28;20449;-78
2023/07/16 03:19:09;;;;;;;3.60;2.20;;;19.30;83.40;;;;;;5035840;28;20834;-79
2023/07/16 03:21:36;;;;;;;3.40;1.43;;;19.40;40.20;;;;;;5035201;28;20627;-79
2023/07/16 03:24:03;;;;;;;3.60;1.50;;;19.40;10.90;;;;;;5035865;28;20888;-78
2023/07/16 03:26:30;;;;;;;5.60;1.83;;;19.30;20.20;;;;;;5034084;28;20480;-78
2023/07/16 03:28:57;;;;;;;4.60;1.50;;;19.40;11.60;;;;;;5034800;28;20464;-79
2023/07/16 03:31:25;;;;;;;4.73;1.77;;;19.20;1.00;;;;;;5036055;28;20937;-78
2023/07/16 03:33:52;;;;;;;3.10;1.57;;;19.20;1.00;;;;;;5035269;28;20555;-80
2023/07/16 03:36:19;;;;;;;5.67;1.70;;;19.20;1.00;;;;;;5034585;28;20463;-78
2023/07/16 03:38:46;;;;;;;2.97;1.50;;;19.20;1.00;;;;;;5036412;28;20457;-79
2023/07/16 03:41:13;;;;;;;4.80;1.80;;;19.20;1.00;;;;;;5034023;28;20473;-78
2023/07/16 03:43:40;;;;;;;3.20;1.60;;;19.10;1.00;;;;;;5034024;28;20456;-75
2023/07/16 03:46:08;;;;;;;3.60;1.40;;;19.00;1.00;;;;;;5033889;28;20452;-80
2023/07/16 03:48:36;;;;;;;6.47;2.13;;;19.00;1.00;;;;;;5034817;28;20490;-78
2023/07/16 03:51:03;;;;;;;4.03;1.53;;;18.90;1.00;;;;;;5034651;28;20467;-78
2023/07/16 03:53:30;;;;;;;7.00;1.87;;;18.90;1.00;;;;;;5034450;28;20975;-78
2023/07/16 03:55:57;;;;;;;3.80;1.60;;;18.90;1.00;;;;;;5033763;28;20479;-78
2023/07/16 03:58:23;;;;;;;5.27;1.77;;;18.80;1.00;;;;;;5033140;28;20458;-79
2023/07/16 04:00:50;;;;;;;3.33;1.60;;;18.80;1.00;;;;;;5033961;28;20473;-78
2023/07/16 04:03:17;;;;;;;5.30;2.60;;;18.90;1.00;;;;;;5034837;28;20444;-77
2023/07/16 04:05:45;;;;;;;5.20;1.67;;;18.90;99.90;;;;;;5033161;28;20461;-79
2023/07/16 04:08:12;;;;;;;4.73;1.80;;;18.80;99.90;;;;;;5033602;28;20860;-78
2023/07/16 04:10:39;;;;;;;4.77;1.97;;;18.80;99.90;;;;;;5033743;28;20482;-79
2023/07/16 04:13:05;;;;;;;7.83;2.10;;;18.80;46.30;;;;;;5034833;28;20531;-78
2023/07/16 04:15:32;;;;;;;3.70;2.30;;;18.70;1.00;;;;;;5037160;28;20463;-78
2023/07/16 04:17:59;;;;;;;6.30;2.00;;;18.70;1.00;;;;;;5038600;28;20457;-79
2023/07/16 04:20:26;;;;;;;4.87;2.23;;;18.80;1.00;;;;;;5034834;28;20468;-81
2023/07/16 04:22:54;;;;;;;6.57;2.00;;;18.70;99.90;;;;;;5035399;28;20462;-79
2023/07/16 04:25:21;;;;;;;7.43;2.10;;;18.80;99.90;;;;;;5033238;28;20463;-78
2023/07/16 04:27:48;;;;;;;3.33;1.80;;;18.70;8.10;;;;;;5034303;28;20495;-79
2023/07/16 04:30:14;;;;;;;8.80;1.60;;;18.80;99.90;;;;;;5033272;28;20487;-81
2023/07/16 04:32:41;;;;;;;3.30;2.00;;;18.80;99.90;;;;;;5034578;28;20952;-78
2023/07/16 04:35:08;;;;;;;2.97;2.20;;;18.80;99.90;;;;;;5034441;28;21129;-76
2023/07/16 04:37:35;;;;;;;4.20;1.73;;;18.80;1.00;;;;;;5033302;28;20451;-79
2023/07/16 04:40:04;;;;;;;4.10;2.00;;;18.80;99.90;;;;;;5034484;28;20482;-79
2023/07/16 04:42:31;;;;;;;3.20;2.00;;;18.80;99.90;;;;;;5034193;28;20449;-80
2023/07/16 04:44:58;;;;;;;7.80;2.50;;;18.80;99.90;;;;;;5033953;28;20453;-77
2023/07/16 04:47:25;;;;;;;8.10;1.83;;;18.80;99.90;;;;;;5031919;28;20487;-79
2023/07/16 04:49:52;;;;;;;8.37;2.40;;;18.80;99.90;;;;;;5032891;28;21038;-77
2023/07/16 04:52:18;;;;;;;7.00;2.20;;;18.70;1.00;;;;;;5033050;28;20449;-78
2023/07/16 04:54:45;;;;;;;5.90;2.30;;;18.70;1.00;;;;;;5033906;28;20983;-78
2023/07/16 04:57:13;;;;;;;4.70;1.80;;;18.70;99.90;;;;;;5039028;28;20455;-79
2023/07/16 04:59:40;;;;;;;3.97;1.80;;;18.70;1.00;;;;;;5029812;28;21003;-77
2023/07/16 05:02:08;;;;;;;3.57;2.20;;;18.80;99.90;;;;;;5031540;28;20453;-78
2023/07/16 05:04:35;;;;;;;4.53;1.80;;;18.70;1.00;;;;;;5034761;28;20463;-79
2023/07/16 05:07:02;;;;;;;7.00;2.67;;;18.80;99.90;;;;;;5034084;28;20484;-79
2023/07/16 05:09:29;;;;;;;7.30;1.93;;;18.70;46.90;;;;;;5034336;28;20484;-78
2023/07/16 05:11:56;;;;;;;3.90;1.97;;;18.80;12.90;;;;;;5035437;28;20452;-80
2023/07/16 05:14:28;;;;;;;5.20;2.43;;;18.70;99.90;;;;;;5036234;28;20452;-80
2023/07/16 05:16:54;;;;;;;5.50;2.20;;;18.80;99.90;;;;;;5033714;28;20448;-79
2023/07/16 05:19:21;;;;;;;5.40;1.80;;;18.70;99.90;;;;;;5035889;28;20482;-80
2023/07/16 05:21:48;;;;;;;5.73;1.93;;;18.80;1.00;;;;;;5037624;28;20547;-80
2023/07/16 05:24:15;;;;;;;4.47;2.93;;;18.80;99.90;;;;;;5037214;28;20511;-80
2023/07/16 05:26:42;;;;;;;8.40;2.70;;;18.80;99.90;;;;;;5031989;28;20476;-79
2023/07/16 05:29:09;;;;;;;3.60;2.03;;;18.80;1.00;;;;;;5036638;28;20480;-79
2023/07/16 05:31:37;;;;;;;5.70;3.00;;;18.80;99.90;;;;;;5057154;22;20568;-80
2023/07/16 05:34:04;;;;;;;5.17;2.27;;;18.80;1.00;;;;;;5037346;28;20471;-81
2023/07/16 05:36:31;;;;;;;7.30;2.20;;;18.80;99.90;;;;;;5033120;28;20445;-82
2023/07/16 05:38:57;;;;;;;6.70;2.10;;;18.90;99.90;;;;;;5038602;28;20516;-80
2023/07/16 05:41:24;;;;;;;4.97;2.80;;;18.80;47.90;;;;;;5034509;28;20477;-80
2023/07/16 05:43:51;;;;;;;4.33;2.57;;;18.90;99.90;;;;;;5029422;28;20530;-80
2023/07/16 05:46:18;;;;;;;7.00;2.30;;;18.80;99.90;;;;;;5037819;28;20556;-80
2023/07/16 05:48:46;;;;;;;6.00;3.03;;;18.90;99.90;;;;;;5036083;28;20492;-79
2023/07/16 05:51:13;;;;;;;7.03;3.07;;;18.90;99.90;;;;;;5026664;28;20472;-80
2023/07/16 05:53:39;;;;;;;4.17;2.10;;;19.00;1.00;;;;;;5036627;28;20528;-80
2023/07/16 05:56:06;;;;;;;9.53;2.20;;;19.00;1.00;;;;;;5038130;28;20469;-80
2023/07/16 05:58:33;;;;;;;5.60;3.00;;;19.10;99.90;;;;;;5037330;28;20881;-81
2023/07/16 06:01:00;;;;;;;5.10;2.47;;;19.10;99.90;;;;;;5035302;28;20482;-80
2023/07/16 06:03:26;;;;;;;6.27;2.57;;;19.00;99.90;;;;;;5028951;28;20457;-80
2023/07/16 06:05:55;;;;;;;11.93;3.00;;;19.10;99.90;;;;;;5017150;28;20918;-79
2023/07/16 06:08:26;;;;;;;4.97;2.27;;;19.10;99.90;;;;;;5028211;28;20480;-78
2023/07/16 06:10:53;;;;;;;6.53;2.40;;;19.10;4.90;;;;;;5016239;28;20496;-80
2023/07/16 06:13:20;;;;;;;16.20;2.43;;;19.10;99.90;;;;;;5015617;28;20461;-78
2023/07/16 06:15:47;;;;;;;7.33;3.03;;;19.20;99.90;;;;;;5033332;28;20449;-78
2023/07/16 06:18:14;;;;;;;6.43;2.97;;;19.20;99.90;;;;;;5028148;28;21175;-78
2023/07/16 06:20:44;;;;;;;6.53;3.57;;;19.10;1.00;;;;;;5034240;28;20474;-79
2023/07/16 06:23:12;;;;;;;6.67;2.70;;;19.20;99.90;;;;;;5034042;28;20452;-80
2023/07/16 06:25:40;;;;;;;5.90;3.10;;;19.20;1.00;;;;;;5034192;28;20441;-79
2023/07/16 06:28:07;;;;;;;8.30;3.47;;;19.20;99.90;;;;;;5037613;28;20492;-79
2023/07/16 06:30:34;;;;;;;7.87;3.73;;;19.20;99.90;;;;;;5037447;28;20487;-78
2023/07/16 06:33:01;;;;;;;10.37;3.47;;;19.20;1.00;;;;;;5037345;28;20508;-80
2023/07/16 06:35:28;;;;;;;5.90;3.70;;;19.30;1.00;;;;;;5034493;28;20989;-77
2023/07/16 06:37:54;;;;;;;11.83;3.13;;;19.20;1.00;;;;;;5035637;28;20815;-79
2023/07/16 06:40:23;;;;;;;5.90;3.63;;;19.20;99.90;;;;;;5034784;28;20477;-79
2023/07/16 06:42:49;;;;;;;6.90;3.90;;;19.20;99.90;;;;;;5035414;28;20454;-80
2023/07/16 06:45:17;;;;;;;6.93;3.23;;;19.20;99.90;;;;;;5037153;28;20453;-79
2023/07/16 06:47:44;;;;;;;7.87;4.40;;;19.20;99.90;;;;;;5039957;28;20480;-80
2023/07/16 06:50:11;;;;;;;8.50;3.93;;;19.30;99.90;;;;;;5038408;28;20543;-80
2023/07/16 06:52:38;;;;;;;7.87;3.77;;;19.40;99.90;;;;;;5039610;28;20452;-79
2023/07/16 06:55:05;;;;;;;9.83;4.00;;;19.30;99.90;;;;;;5038850;28;20459;-79
2023/07/16 06:57:34;;;;;;;10.93;4.17;;;19.60;99.90;;;;;;5038970;28;20463;-80
2023/07/16 07:00:00;;;;;;;6.57;3.67;;;19.40;15.50;;;;;;5038545;28;20551;-79
2023/07/16 07:02:27;;;;;;;8.07;3.87;;;19.40;92.80;;;;;;5038139;28;20539;-78
2023/07/16 07:04:54;;;;;;;9.10;4.30;;;19.40;3.80;;;;;;5039203;28;20449;-79
2023/07/16 07:07:21;;;;;;;9.10;4.33;;;19.50;46.30;;;;;;5038548;28;20464;-79
2023/07/16 07:09:49;;;;;;;7.97;3.50;;;19.60;99.90;;;;;;5039040;28;20452;-79
2023/07/16 07:12:15;;;;;;;8.07;3.67;;;19.50;7.50;;;;;;5038858;28;20457;-78
2023/07/16 07:14:44;;;;;;;13.10;3.63;;;19.50;34.50;;;;;;5039441;28;20485;-79
2023/07/16 07:17:10;;;;;;;10.40;3.40;;;19.70;26.90;;;;;;5035810;28;20452;-79
2023/07/16 07:19:37;;;;;;;8.20;3.63;;;19.60;99.90;;;;;;5038595;28;20456;-80
2023/07/16 07:22:04;;;;;;;10.27;4.70;;;19.70;1.00;;;;;;5037661;28;20463;-81
2023/07/16 07:24:31;;;;;;;6.87;3.10;;;19.70;7.50;;;;;;5038802;28;20459;-80
2023/07/16 07:26:58;;;;;;;8.07;3.80;;;19.90;97.10;;;;;;5035148;28;20453;-79
2023/07/16 07:29:25;;;;;;;6.30;3.57;;;19.80;1.00;;;;;;5019390;28;20499;-81
2023/07/16 07:31:53;;;;;;;10.37;3.93;;;19.80;1.00;;;;;;5035314;28;20491;-80
2023/07/16 07:34:20;;;;;;;7.03;3.57;;;19.90;1.00;;;;;;5038397;28;20457;-80
2023/07/16 07:36:48;;;;;;;6.40;3.30;;;20.10;1.00;;;;;;5037730;28;20949;-81
2023/07/16 07:39:16;;;;;;;6.73;3.27;;;20.00;1.00;;;;;;5038063;28;20456;-80
2023/07/16 07:41:43;;;;;;;4.87;3.27;;;20.10;1.00;;;;;;5038289;28;20469;-81
2023/07/16 07:44:10;;;;;;;8.03;3.30;;;20.20;1.00;;;;;;5035436;28;21190;-79
2023/07/16 07:46:36;;;;;;;7.70;4.00;;;19.90;26.00;;;;;;5037370;28;20488;-80
2023/07/16 07:49:05;;;;;;;6.00;3.77;;;20.30;1.00;;;;;;5038237;28;20481;-80
2023/07/16 07:51:31;;;;;;;5.87;3.50;;;19.90;99.00;;;;;;5037824;28;20476;-81
2023/07/16 07:53:58;;;;;;;8.53;3.87;;;20.40;1.00;;;;;;5037907;28;20456;-80
2023/07/16 07:56:25;;;;;;;9.90;4.47;;;20.40;1.00;;;;;;5036822;28;20452;-81
2023/07/16 07:58:52;;;;;;;12.40;4.00;;;20.40;1.00;;;;;;5038224;28;20455;-81
2023/07/16 08:01:18;;;;;;;6.33;3.90;;;20.40;1.00;;;;;;5037032;28;20473;-81
2023/07/16 08:03:45;;;;;;;9.50;4.20;;;20.50;1.00;;;;;;5037374;28;20823;-79
2023/07/16 08:06:14;;;;;;;5.00;3.47;;;20.60;1.00;;;;;;5031422;28;20459;-80
2023/07/16 08:08:41;;;;;;;9.00;3.63;;;20.70;1.00;;;;;;5037494;28;20854;-80
2023/07/16 08:11:07;;;;;;;6.33;4.00;;;20.70;1.00;;;;;;5034686;28;21068;-81
2023/07/16 08:13:34;;;;;;;5.73;3.53;;;20.90;1.00;;;;;;5037339;28;20543;-80
2023/07/16 08:16:01;;;;;;;5.40;3.80;;;20.80;1.00;;;;;;5031434;28;20463;-83
2023/07/16 08:18:28;;;;;;;7.73;3.80;;;21.00;1.00;;;;;;5037495;28;20451;-82
2023/07/16 08:20:54;;;;;;;6.97;3.83;;;20.90;99.90;;;;;;5036195;28;20476;-81
2023/07/16 08:23:22;;;;;;;9.87;4.00;;;21.00;99.90;;;;;;5037067;28;20453;-82
2023/07/16 08:25:50;;;;;;;6.97;3.60;;;21.60;1.00;;;;;;5036166;28;20453;-83
2023/07/16 08:28:17;;;;;;;6.60;3.00;;;21.10;99.90;;;;;;5035672;28;21017;-83
2023/07/16 08:30:46;;;;;;;9.00;4.43;;;21.10;99.90;;;;;;5035178;28;20482;-81
2023/07/16 08:33:14;;;;;;;11.53;4.47;;;21.20;99.90;;;;;;5035212;28;20467;-83
2023/07/16 08:35:41;;;;;;;7.87;4.30;;;21.30;99.90;;;;;;5036309;28;20567;-82
2023/07/16 08:38:09;;;;;;;5.00;3.43;;;21.40;99.90;;;;;;5035169;28;20455;-82
2023/07/16 08:40:37;;;;;;;7.43;4.40;;;21.40;99.90;;;;;;5037185;28;20904;-81
2023/07/16 08:43:06;;;;;;;10.73;3.90;;;21.50;99.90;;;;;;5037075;28;20459;-83
2023/07/16 08:45:39;;;;;;;6.47;3.53;;;21.50;99.90;;;;;;5036849;28;20456;-81
2023/07/16 08:48:07;;;;;;;4.80;3.10;;;21.60;99.90;;;;;;5036104;28;20441;-82
2023/07/16 08:50:36;;;;;;;8.60;4.30;;;21.40;99.90;;;;;;5035295;28;20481;-83
2023/07/16 08:53:04;;;;;;;6.10;3.43;;;21.50;99.90;;;;;;5038347;28;20535;-82
2023/07/16 08:55:31;;;;;;;6.97;3.87;;;21.50;99.90;;;;;;5035932;28;20453;-80
2023/07/16 08:58:00;;;;;;;14.30;3.77;;;21.40;99.90;;;;;;5037587;28;20461;-83
2023/07/16 09:00:27;;;;;;;6.37;3.40;;;21.50;99.90;;;;;;5033461;28;20556;-82
2023/07/16 09:02:54;;;;;;;6.87;3.63;;;21.40;99.90;;;;;;5017234;28;20831;-82
2023/07/16 09:05:22;;;;;;;5.50;3.27;;;21.50;99.90;;;;;;5018970;28;20458;-84
2023/07/16 09:07:49;;;;;;;7.37;3.50;;;21.50;99.90;;;;;;5035096;28;20445;-83
2023/07/16 09:10:18;;;;;;;8.40;3.27;;;21.80;99.90;;;;;;5027034;28;21018;-82
2023/07/16 09:12:45;;;;;;;5.80;3.30;;;21.90;99.90;;;;;;5036395;28;20842;-81
2023/07/16 09:15:19;;;;;;;7.10;3.27;;;21.80;99.90;;;;;;5036592;28;20465;-80
2023/07/16 09:17:48;;;;;;;4.27;2.80;;;22.00;99.90;;;;;;5037501;28;20788;-83
2023/07/16 09:20:16;;;;;;;4.90;3.20;;;22.20;99.90;;;;;;5037068;28;20469;-81
2023/07/16 09:22:43;;;;;;;7.03;3.40;;;22.50;99.90;;;;;;5046137;28;20437;-82
2023/07/16 09:25:10;;;;;;;5.60;2.90;;;22.40;99.90;;;;;;5038103;28;20551;-84
2023/07/16 09:27:37;;;;;;;4.53;2.60;;;22.50;99.90;;;;;;5024383;28;20448;-83
2023/07/16 09:30:05;;;;;;;5.27;2.50;;;22.80;99.90;;;;;;5037769;28;20490;-84
2023/07/16 09:32:38;;;;;;;6.27;2.90;;;23.00;99.90;;;;;;5038348;28;20460;-84
2023/07/16 09:35:08;;;;;;;4.10;2.80;;;23.10;99.90;;;;;;5037871;28;20463;-84
2023/07/16 09:37:37;;;;;;;5.80;3.00;;;23.30;99.90;;;;;;5037083;28;20456;-81
2023/07/16 09:40:07;;;;;;;8.53;2.67;;;23.50;99.90;;;;;;5036840;28;20465;-84
2023/07/16 09:42:37;;;;;;;4.10;2.83;;;23.80;99.90;;;;;;5038710;28;20449;-83
2023/07/16 09:45:06;;;;;;;5.07;3.10;;;24.10;99.90;;;;;;5037088;28;20456;-82
2023/07/16 09:47:32;;;;;;;4.43;2.63;;;24.30;99.90;;;;;;5034901;28;20453;-82
2023/07/16 09:50:01;;;;;;;4.97;3.07;;;24.50;99.90;;;;;;5036569;28;21026;-82
2023/07/16 09:52:28;;;;;;;6.57;3.43;;;24.50;99.90;;;;;;5036583;28;20448;-83
2023/07/16 09:54:56;;;;;;;6.83;3.00;;;24.70;99.90;;;;;;5033231;28;20448;-83
2023/07/16 09:57:25;;;;;;;5.27;2.60;;;24.80;99.90;;;;;;5034071;28;20453;-83
2023/07/16 09:59:54;;;;;;;6.20;3.73;;;25.00;99.90;;;;;;5035181;28;20448;-80
2023/07/16 10:02:22;;;;;;;5.10;3.50;;;24.90;99.90;;;;;;5034917;28;20551;-83
2023/07/16 10:04:48;;;;;;;4.00;2.90;;;24.90;99.90;;;;;;5036754;28;20461;-82
2023/07/16 10:07:26;;;;;;;9.10;2.83;;;24.60;99.90;;;;;;5035479;28;20457;-81
2023/07/16 10:09:55;;;;;;;5.60;2.90;;;25.00;99.90;;;;;;5029776;28;20941;-83
2023/07/16 10:12:22;;;;;;;7.67;2.73;;;24.90;99.90;;;;;;5026669;28;20532;-83
2023/07/16 10:14:50;;;;;;;5.67;3.30;;;24.80;99.90;;;;;;5034993;28;20452;-83
2023/07/16 10:17:20;;;;;;;4.20;3.10;;;24.40;99.90;;;;;;5035091;28;20453;-82
2023/07/16 10:19:50;;;;;;;7.60;2.93;;;23.90;99.90;;;;;;5039374;28;20444;-84
2023/07/16 10:22:19;;;;;;;5.43;2.93;;;24.30;99.90;;;;;;5040913;28;20448;-82
2023/07/16 10:24:52;;;;;;;9.47;3.50;;;24.50;99.90;;;;;;5040381;28;20532;-81
2023/07/16 10:27:28;;;;;;;8.83;4.30;;;24.60;99.90;;;;;;5035842;28;20459;-83
2023/07/16 10:29:55;;;;;;;8.23;3.40;;;25.20;99.90;;;;;;5040359;28;20890;-83
2023/07/16 10:32:22;;;;;;;6.63;3.63;;;25.00;99.90;;;;;;5040801;28;20440;-83
2023/07/16 10:34:49;;;;;;;6.20;3.70;;;24.70;99.90;;;;;;5039990;28;20456;-83
2023/07/16 10:37:16;;;;;;;5.87;3.23;;;25.20;99.90;;;;;;5039250;28;20483;-82
2023/07/16 10:39:49;;;;;;;5.40;3.10;;;25.40;99.90;;;;;;5039588;28;20459;-83
2023/07/16 10:42:17;;;;;;;4.53;2.90;;;25.70;99.90;;;;;;5039079;28;20441;-82
2023/07/16 10:44:44;;;;;;;4.83;2.90;;;25.80;99.90;;;;;;5040087;28;20453;-83
2023/07/16 10:47:21;;;;;;;10.50;3.57;;;25.70;99.90;;;;;;5039909;28;20535;-83
2023/07/16 10:49:47;;;;;;;7.17;3.53;;;25.80;99.90;;;;;;5033729;28;20480;-83
2023/07/16 10:52:14;;;;;;;5.10;2.70;;;26.00;99.90;;;;;;5037857;28;20531;-81
2023/07/16 10:54:41;;;;;;;5.63;3.07;;;26.20;99.90;;;;;;5039553;28;20457;-85
2023/07/16 10:57:19;;;;;;;5.17;2.80;;;26.30;99.90;;;;;;5037799;28;20449;-82
2023/07/16 10:59:48;;;;;;;4.00;2.60;;;26.50;99.90;;;;;;5036915;28;20445;-82
2023/07/16 11:02:16;;;;;;;5.33;3.27;;;26.70;99.90;;;;;;5038501;28;20472;-82
2023/07/16 11:04:44;;;;;;;4.10;2.57;;;26.20;99.90;;;;;;5036639;28;20804;-83
2023/07/16 11:07:12;;;;;;;4.20;2.50;;;25.80;99.90;;;;;;5037833;28;20499;-82
2023/07/16 11:09:43;;;;;;;5.17;3.33;;;25.60;99.90;;;;;;5037824;28;20575;-81
2023/07/16 11:12:13;;;;;;;6.90;3.03;;;25.60;99.90;;;;;;5039560;28;20444;-82
2023/07/16 11:14:43;;;;;;;5.13;2.93;;;25.30;99.90;;;;;;5030607;28;20472;-82
2023/07/16 11:17:10;;;;;;;8.17;3.60;;;25.00;99.90;;;;;;5035309;28;20476;-80
2023/07/16 11:19:38;;;;;;;7.37;3.60;;;24.80;99.90;;;;;;5040513;28;20536;-79
2023/07/16 11:22:06;;;;;;;6.83;2.70;;;24.60;99.90;;;;;;5036395;28;20453;-80
2023/07/16 11:24:41;;;;;;;6.63;3.03;;;25.00;99.90;;;;;;5044984;28;20457;-81
2023/07/16 11:27:15;;;;;;;4.20;3.20;;;24.90;99.90;;;;;;5046416;28;20456;-80
2023/07/16 11:29:46;;;;;;;4.50;2.80;;;25.00;99.90;;;;;;5035646;28;20503;-82
2023/07/16 11:32:14;;;;;;;6.80;2.83;;;24.90;99.90;;;;;;5036529;28;20437;-83
2023/07/16 11:34:53;;;;;;;6.07;2.93;;;24.70;99.90;;;;;;5039766;28;20464;-81
2023/07/16 11:37:21;;;;;;;4.10;2.67;;;24.30;99.90;;;;;;5031838;28;20445;-78
2023/07/16 11:39:48;;;;;;;6.93;3.30;;;24.10;99.90;;;;;;5063093;22;20490;-75
2023/07/16 11:42:23;;;;;;;6.00;3.43;;;23.90;99.90;;;;;;5069216;28;20545;-76
2023/07/16 11:44:51;;;;;;;5.13;3.00;;;23.70;99.90;;;;;;5070818;28;20891;-76
2023/07/16 11:47:18;;;;;;;5.73;2.57;;;23.70;99.90;;;;;;5067733;28;20462;-76
2023/07/16 11:49:44;;;;;;;5.50;3.20;;;23.60;99.90;;;;;;5056717;28;21272;-76
2023/07/16 11:52:11;;;;;;;4.40;2.40;;;23.50;99.90;;;;;;5049318;28;20469;-77
2023/07/16 11:54:38;;;;;;;9.60;4.60;;;23.50;99.90;;;;;;5050128;28;20452;-77
2023/07/16 11:57:06;;;;;;;8.03;3.30;;;23.40;99.90;;;;;;5050828;28;20547;-76
2023/07/16 11:59:34;;;;;;;6.23;2.87;;;23.20;99.90;;;;;;5050961;28;20468;-76
2023/07/16 12:02:01;;;;;;;6.20;2.67;;;23.20;99.90;;;;;;5051229;28;20452;-77
2023/07/16 12:04:28;;;;;;;5.33;3.00;;;23.30;99.90;;;;;;5048837;28;20450;-76
2023/07/16 12:06:54;;;;;;;6.37;2.70;;;23.40;99.90;;;;;;5049969;28;20822;-76
2023/07/16 12:09:21;;;;;;;6.53;3.40;;;23.40;99.90;;;;;;5051271;28;20506;-77
2023/07/16 12:11:48;;;;;;;5.10;3.20;;;23.30;99.90;;;;;;5050844;28;21058;-77
2023/07/16 12:14:15;;;;;;;4.30;2.57;;;23.30;99.90;;;;;;5048517;28;20448;-77
2023/07/16 12:16:43;;;;;;;4.33;2.67;;;23.40;99.90;;;;;;5050186;28;20539;-76
2023/07/16 12:19:10;;;;;;;6.90;3.27;;;23.60;99.90;;;;;;5049841;28;20444;-77
2023/07/16 12:21:37;;;;;;;5.80;3.07;;;23.70;99.90;;;;;;5052625;28;20440;-77
2023/07/16 12:24:05;;;;;;;4.97;2.90;;;23.80;99.90;;;;;;5053329;28;20487;-77
2023/07/16 12:26:32;;;;;;;5.17;2.57;;;23.80;99.90;;;;;;5049625;28;20452;-75
2023/07/16 12:29:02;;;;;;;5.50;2.67;;;23.70;99.90;;;;;;5051444;28;20463;-77
2023/07/16 12:31:29;;;;;;;7.07;2.40;;;23.90;99.90;;;;;;5039521;28;20453;-78
2023/07/16 12:33:57;;;;;;;7.43;3.20;;;24.10;99.90;;;;;;5050512;28;20463;-78
2023/07/16 12:36:24;;;;;;;4.60;2.80;;;24.10;99.90;;;;;;5050172;28;20470;-78
2023/07/16 12:38:51;;;;;;;4.90;3.00;;;24.00;99.90;;;;;;5042609;28;20551;-77
2023/07/16 12:41:18;;;;;;;6.40;2.80;;;23.80;99.90;;;;;;5046863;28;20441;-79
2023/07/16 12:43:45;;;;;;;6.03;2.90;;;23.70;99.90;;;;;;5049940;28;20428;-78
2023/07/16 12:46:12;;;;;;;6.57;2.90;;;23.50;99.90;;;;;;5052905;28;20454;-80
2023/07/16 12:48:38;;;;;;;6.57;3.17;;;23.70;99.90;;;;;;5053507;28;20539;-79
2023/07/16 12:51:07;;;;;;;6.20;3.47;;;23.70;99.90;;;;;;5053542;28;20567;-78